sensor_id;sensor_type;location;lat;lon;timestamp;pressure;altitude;pressure_sealevel;temperature;humidity
38452;BME280;24231;52.514;13.438;2023-03-23T00:03:21;100128.71;;;13.04;52.00
38452;BME280;24231;52.514;13.438;2023-03-23T00:05:50;100124.57;;;13.71;50.33
38452;BME280;24231;52.514;13.438;2023-03-23T00:08:18;100119.58;;;13.72;50.58
38452;BME280;24231;52.514;13.438;2023-03-23T00:10:48;100114.04;;;12.72;53.42
38452;BME280;24231;52.514;13.438;2023-03-23T00:13:15;100111.22;;;13.08;52.53
38452;BME280;24231;52.514;13.438;2023-03-23T00:15:43;100100.14;;;12.67;53.58
38452;BME280;24231;52.514;13.438;2023-03-23T00:18:10;100107.98;;;12.11;56.15
38452;BME280;24231;52.514;13.438;2023-03-23T00:20:40;100102.74;;;13.34;52.10
38452;BME280;24231;52.514;13.438;2023-03-23T00:23:07;100101.71;;;12.44;54.57
38452;BME280;24231;52.514;13.438;2023-03-23T00:25:34;100109.33;;;11.99;55.66
38452;BME280;24231;52.514;13.438;2023-03-23T00:28:01;100102.72;;;13.39;51.95
38452;BME280;24231;52.514;13.438;2023-03-23T00:30:29;100099.60;;;12.57;53.70
38452;BME280;24231;52.514;13.438;2023-03-23T00:32:56;100092.16;;;14.40;48.84
38452;BME280;24231;52.514;13.438;2023-03-23T00:35:23;100083.30;;;14.63;48.00
38452;BME280;24231;52.514;13.438;2023-03-23T00:37:51;100089.71;;;12.86;52.25
38452;BME280;24231;52.514;13.438;2023-03-23T00:40:17;100089.73;;;13.19;52.04
38452;BME280;24231;52.514;13.438;2023-03-23T00:42:45;100084.47;;;13.76;50.27
38452;BME280;24231;52.514;13.438;2023-03-23T00:45:12;100083.40;;;12.95;52.00
38452;BME280;24231;52.514;13.438;2023-03-23T00:47:39;100076.88;;;12.38;53.97
38452;BME280;24231;52.514;13.438;2023-03-23T00:50:07;100074.67;;;12.46;54.13
38452;BME280;24231;52.514;13.438;2023-03-23T00:52:34;100073.91;;;13.50;51.36
38452;BME280;24231;52.514;13.438;2023-03-23T00:55:01;100070.03;;;12.69;52.92
38452;BME280;24231;52.514;13.438;2023-03-23T00:57:28;100066.76;;;12.76;53.28
38452;BME280;24231;52.514;13.438;2023-03-23T00:59:55;100065.26;;;12.53;53.50
38452;BME280;24231;52.514;13.438;2023-03-23T01:02:23;100063.62;;;13.29;51.73
38452;BME280;24231;52.514;13.438;2023-03-23T01:04:50;100054.42;;;12.67;52.96
38452;BME280;24231;52.514;13.438;2023-03-23T01:07:17;100057.11;;;12.22;54.26
38452;BME280;24231;52.514;13.438;2023-03-23T01:09:48;100056.00;;;12.17;54.94
38452;BME280;24231;52.514;13.438;2023-03-23T01:12:15;100047.78;;;12.52;54.22
38452;BME280;24231;52.514;13.438;2023-03-23T01:14:42;100053.37;;;11.96;55.89
38452;BME280;24231;52.514;13.438;2023-03-23T01:17:09;100055.52;;;11.78;56.50
38452;BME280;24231;52.514;13.438;2023-03-23T01:19:36;100052.56;;;12.00;56.43
38452;BME280;24231;52.514;13.438;2023-03-23T01:22:04;100045.88;;;12.43;54.73
38452;BME280;24231;52.514;13.438;2023-03-23T01:24:31;100042.85;;;12.70;53.16
38452;BME280;24231;52.514;13.438;2023-03-23T01:26:58;100044.91;;;12.66;52.91
38452;BME280;24231;52.514;13.438;2023-03-23T01:29:25;100041.20;;;12.18;54.96
38452;BME280;24231;52.514;13.438;2023-03-23T01:31:52;100038.19;;;12.00;55.37
38452;BME280;24231;52.514;13.438;2023-03-23T01:34:19;100033.01;;;12.56;53.74
38452;BME280;24231;52.514;13.438;2023-03-23T01:36:47;100026.87;;;12.79;53.23
38452;BME280;24231;52.514;13.438;2023-03-23T01:39:14;100025.93;;;12.05;55.13
38452;BME280;24231;52.514;13.438;2023-03-23T01:41:41;100025.64;;;12.47;53.88
38452;BME280;24231;52.514;13.438;2023-03-23T01:45:29;100030.16;;;12.25;54.71
38452;BME280;24231;52.514;13.438;2023-03-23T01:48:02;100032.72;;;13.86;50.25
38452;BME280;24231;52.514;13.438;2023-03-23T01:50:34;100031.05;;;13.75;50.04
38452;BME280;24231;52.514;13.438;2023-03-23T01:53:04;100032.12;;;11.86;55.47
38452;BME280;24231;52.514;13.438;2023-03-23T01:55:33;100022.29;;;12.48;54.04
38452;BME280;24231;52.514;13.438;2023-03-23T01:58:03;100020.45;;;11.78;56.04
38452;BME280;24231;52.514;13.438;2023-03-23T02:00:30;100010.24;;;12.77;53.53
38452;BME280;24231;52.514;13.438;2023-03-23T02:02:57;100015.84;;;11.71;56.49
38452;BME280;24231;52.514;13.438;2023-03-23T02:05:29;100011.36;;;12.42;54.11
38452;BME280;24231;52.514;13.438;2023-03-23T02:07:58;100008.02;;;13.12;52.01
38452;BME280;24231;52.514;13.438;2023-03-23T02:10:26;100010.97;;;12.07;55.40
38452;BME280;24231;52.514;13.438;2023-03-23T02:12:53;100009.81;;;13.41;51.22
38452;BME280;24231;52.514;13.438;2023-03-23T02:15:20;100009.46;;;11.55;56.11
38452;BME280;24231;52.514;13.438;2023-03-23T02:17:52;100005.47;;;12.42;54.40
38452;BME280;24231;52.514;13.438;2023-03-23T02:20:37;100011.33;;;12.46;54.29
38452;BME280;24231;52.514;13.438;2023-03-23T02:23:20;100005.61;;;12.90;52.17
38452;BME280;24231;52.514;13.438;2023-03-23T02:26:10;99997.93;;;13.20;51.85
38452;BME280;24231;52.514;13.438;2023-03-23T02:28:54;99992.01;;;12.24;54.49
38452;BME280;24231;52.514;13.438;2023-03-23T02:31:39;99996.08;;;11.97;55.42
38452;BME280;24231;52.514;13.438;2023-03-23T02:34:14;99994.23;;;12.46;54.20
38452;BME280;24231;52.514;13.438;2023-03-23T02:36:46;99994.50;;;12.59;53.80
38452;BME280;24231;52.514;13.438;2023-03-23T02:39:20;99990.03;;;12.38;53.93
38452;BME280;24231;52.514;13.438;2023-03-23T02:41:53;99995.97;;;12.03;55.03
38452;BME280;24231;52.514;13.438;2023-03-23T02:44:22;99998.86;;;12.32;54.53
38452;BME280;24231;52.514;13.438;2023-03-23T02:46:52;100006.85;;;12.39;53.89
38452;BME280;24231;52.514;13.438;2023-03-23T02:49:20;100005.55;;;12.51;54.17
38452;BME280;24231;52.514;13.438;2023-03-23T02:51:49;100002.26;;;12.39;54.02
38452;BME280;24231;52.514;13.438;2023-03-23T02:54:18;100002.01;;;13.28;52.13
38452;BME280;24231;52.514;13.438;2023-03-23T02:56:47;99996.91;;;13.44;52.11
38452;BME280;24231;52.514;13.438;2023-03-23T02:59:15;99998.18;;;12.76;54.05
38452;BME280;24231;52.514;13.438;2023-03-23T03:01:50;99987.56;;;14.09;51.10
38452;BME280;24231;52.514;13.438;2023-03-23T03:04:21;99986.36;;;11.98;56.64
38452;BME280;24231;52.514;13.438;2023-03-23T03:06:58;99986.81;;;12.75;54.30
38452;BME280;24231;52.514;13.438;2023-03-23T03:09:33;99984.13;;;13.33;52.81
38452;BME280;24231;52.514;13.438;2023-03-23T03:12:29;99980.04;;;12.85;54.28
38452;BME280;24231;52.514;13.438;2023-03-23T03:15:08;99981.07;;;12.90;54.07
38452;BME280;24231;52.514;13.438;2023-03-23T03:17:38;99978.76;;;13.34;52.10
38452;BME280;24231;52.514;13.438;2023-03-23T03:20:09;99974.81;;;13.48;52.16
38452;BME280;24231;52.514;13.438;2023-03-23T03:22:39;99980.44;;;12.69;53.94
38452;BME280;24231;52.514;13.438;2023-03-23T03:25:10;99979.73;;;13.10;52.84
38452;BME280;24231;52.514;13.438;2023-03-23T03:27:38;99975.60;;;14.15;50.66
38452;BME280;24231;52.514;13.438;2023-03-23T03:30:09;99972.90;;;14.98;48.73
38452;BME280;24231;52.514;13.438;2023-03-23T03:32:41;99972.68;;;13.45;51.61
38452;BME280;24231;52.514;13.438;2023-03-23T03:35:10;99977.73;;;13.67;51.46
38452;BME280;24231;52.514;13.438;2023-03-23T03:37:38;99980.89;;;14.66;49.23
38452;BME280;24231;52.514;13.438;2023-03-23T03:40:08;99985.72;;;13.04;53.07
38452;BME280;24231;52.514;13.438;2023-03-23T03:42:36;99989.15;;;13.12;52.87
38452;BME280;24231;52.514;13.438;2023-03-23T03:45:04;99981.21;;;14.53;49.93
38452;BME280;24231;52.514;13.438;2023-03-23T03:47:31;99978.28;;;13.51;52.47
38452;BME280;24231;52.514;13.438;2023-03-23T03:49:59;99976.35;;;13.82;52.38
38452;BME280;24231;52.514;13.438;2023-03-23T03:52:26;99973.97;;;12.74;55.38
38452;BME280;24231;52.514;13.438;2023-03-23T03:54:53;99972.65;;;13.13;54.26
38452;BME280;24231;52.514;13.438;2023-03-23T03:57:20;99967.40;;;12.60;56.41
38452;BME280;24231;52.514;13.438;2023-03-23T03:59:48;99977.31;;;13.25;54.24
38452;BME280;24231;52.514;13.438;2023-03-23T04:02:15;99972.03;;;14.34;50.52
38452;BME280;24231;52.514;13.438;2023-03-23T04:04:42;99972.03;;;14.35;50.60
38452;BME280;24231;52.514;13.438;2023-03-23T04:07:09;99979.73;;;13.03;54.49
38452;BME280;24231;52.514;13.438;2023-03-23T04:09:36;99975.49;;;13.45;53.41
38452;BME280;24231;52.514;13.438;2023-03-23T04:12:04;99973.03;;;14.68;50.15
38452;BME280;24231;52.514;13.438;2023-03-23T04:14:31;99965.48;;;14.15;51.51
38452;BME280;24231;52.514;13.438;2023-03-23T04:16:58;99962.34;;;14.45;50.86
38452;BME280;24231;52.514;13.438;2023-03-23T04:19:26;99952.81;;;14.92;49.36
38452;BME280;24231;52.514;13.438;2023-03-23T04:21:52;99952.66;;;15.17;48.32
38452;BME280;24231;52.514;13.438;2023-03-23T04:24:20;99967.95;;;15.12;48.16
38452;BME280;24231;52.514;13.438;2023-03-23T04:26:47;99960.26;;;16.12;46.31
38452;BME280;24231;52.514;13.438;2023-03-23T04:29:14;99958.43;;;16.31;46.04
38452;BME280;24231;52.514;13.438;2023-03-23T04:31:41;99945.49;;;15.90;46.34
38452;BME280;24231;52.514;13.438;2023-03-23T04:34:09;99951.33;;;15.08;47.37
38452;BME280;24231;52.514;13.438;2023-03-23T04:36:36;99954.34;;;16.11;46.41
38452;BME280;24231;52.514;13.438;2023-03-23T04:39:03;99957.82;;;14.00;50.63
38452;BME280;24231;52.514;13.438;2023-03-23T04:41:30;99954.83;;;14.89;49.56
38452;BME280;24231;52.514;13.438;2023-03-23T04:43:57;99949.45;;;16.21;46.23
38452;BME280;24231;52.514;13.438;2023-03-23T04:46:26;99957.46;;;15.56;47.56
38452;BME280;24231;52.514;13.438;2023-03-23T04:48:53;99970.42;;;15.57;48.31
38452;BME280;24231;52.514;13.438;2023-03-23T04:51:20;99982.60;;;14.96;49.90
38452;BME280;24231;52.514;13.438;2023-03-23T04:53:48;99983.46;;;15.63;48.79
38452;BME280;24231;52.514;13.438;2023-03-23T04:56:15;99984.45;;;13.11;55.59
38452;BME280;24231;52.514;13.438;2023-03-23T04:58:42;99983.63;;;14.09;52.88
38452;BME280;24231;52.514;13.438;2023-03-23T05:01:09;99988.35;;;13.33;55.82
38452;BME280;24231;52.514;13.438;2023-03-23T05:03:36;99998.90;;;12.45;58.31
38452;BME280;24231;52.514;13.438;2023-03-23T05:06:04;99994.95;;;13.61;54.30
38452;BME280;24231;52.514;13.438;2023-03-23T05:08:32;99998.68;;;13.26;56.19
38452;BME280;24231;52.514;13.438;2023-03-23T05:11:01;99985.72;;;14.24;53.60
38452;BME280;24231;52.514;13.438;2023-03-23T05:13:28;99981.69;;;13.52;54.97
38452;BME280;24231;52.514;13.438;2023-03-23T05:15:56;99987.54;;;13.48;55.54
38452;BME280;24231;52.514;13.438;2023-03-23T05:18:23;99988.80;;;12.99;58.26
38452;BME280;24231;52.514;13.438;2023-03-23T05:20:50;99983.79;;;13.83;56.59
38452;BME280;24231;52.514;13.438;2023-03-23T05:23:18;99983.53;;;13.71;57.21
38452;BME280;24231;52.514;13.438;2023-03-23T05:25:53;99985.55;;;12.73;60.85
38452;BME280;24231;52.514;13.438;2023-03-23T05:28:20;99982.25;;;12.63;62.39
38452;BME280;24231;52.514;13.438;2023-03-23T05:30:48;99987.32;;;12.13;63.10
38452;BME280;24231;52.514;13.438;2023-03-23T05:33:15;99988.58;;;12.75;62.98
38452;BME280;24231;52.514;13.438;2023-03-23T05:35:43;99996.93;;;11.40;67.77
38452;BME280;24231;52.514;13.438;2023-03-23T05:38:11;99998.61;;;12.02;66.96
38452;BME280;24231;52.514;13.438;2023-03-23T05:40:39;99997.68;;;12.08;66.42
38452;BME280;24231;52.514;13.438;2023-03-23T05:43:06;100000.99;;;12.47;64.13
38452;BME280;24231;52.514;13.438;2023-03-23T05:45:33;100000.44;;;12.32;64.91
38452;BME280;24231;52.514;13.438;2023-03-23T05:48:01;100008.98;;;11.81;67.95
38452;BME280;24231;52.514;13.438;2023-03-23T05:50:28;100009.64;;;11.78;68.03
38452;BME280;24231;52.514;13.438;2023-03-23T05:52:55;100004.43;;;11.89;68.25
38452;BME280;24231;52.514;13.438;2023-03-23T05:55:22;100007.80;;;11.55;69.45
38452;BME280;24231;52.514;13.438;2023-03-23T05:57:49;100009.20;;;11.68;70.67
38452;BME280;24231;52.514;13.438;2023-03-23T06:00:17;100011.48;;;11.02;72.28
38452;BME280;24231;52.514;13.438;2023-03-23T06:02:44;100011.90;;;11.09;72.70
38452;BME280;24231;52.514;13.438;2023-03-23T06:05:12;100013.52;;;11.53;71.30
38452;BME280;24231;52.514;13.438;2023-03-23T06:07:42;100019.91;;;11.61;71.08
38452;BME280;24231;52.514;13.438;2023-03-23T06:10:10;100024.06;;;11.54;72.99
38452;BME280;24231;52.514;13.438;2023-03-23T06:12:43;100025.75;;;11.60;71.88
38452;BME280;24231;52.514;13.438;2023-03-23T06:15:11;100021.36;;;10.56;75.19
38452;BME280;24231;52.514;13.438;2023-03-23T06:17:48;100022.21;;;11.36;75.30
38452;BME280;24231;52.514;13.438;2023-03-23T06:20:15;100025.29;;;11.85;73.61
38452;BME280;24231;52.514;13.438;2023-03-23T06:22:43;100027.41;;;11.71;74.59
38452;BME280;24231;52.514;13.438;2023-03-23T06:25:10;100025.33;;;11.55;74.69
38452;BME280;24231;52.514;13.438;2023-03-23T06:27:37;100026.01;;;11.48;75.09
38452;BME280;24231;52.514;13.438;2023-03-23T06:30:05;100026.57;;;10.90;78.02
38452;BME280;24231;52.514;13.438;2023-03-23T06:32:33;100027.07;;;10.62;79.45
38452;BME280;24231;52.514;13.438;2023-03-23T06:35:01;100029.64;;;10.34;80.47
38452;BME280;24231;52.514;13.438;2023-03-23T06:37:29;100028.77;;;10.66;80.10
38452;BME280;24231;52.514;13.438;2023-03-23T06:39:56;100029.80;;;10.83;79.37
38452;BME280;24231;52.514;13.438;2023-03-23T06:42:23;100038.27;;;11.80;75.97
38452;BME280;24231;52.514;13.438;2023-03-23T06:44:50;100037.65;;;11.21;77.89
38452;BME280;24231;52.514;13.438;2023-03-23T06:47:18;100036.42;;;10.81;79.46
38452;BME280;24231;52.514;13.438;2023-03-23T06:49:45;100042.75;;;11.06;78.75
38452;BME280;24231;52.514;13.438;2023-03-23T06:52:12;100045.28;;;10.63;82.25
38452;BME280;24231;52.514;13.438;2023-03-23T06:54:39;100041.26;;;10.56;81.33
38452;BME280;24231;52.514;13.438;2023-03-23T06:57:07;100042.07;;;10.94;80.27
38452;BME280;24231;52.514;13.438;2023-03-23T06:59:35;100040.68;;;10.37;82.02
38452;BME280;24231;52.514;13.438;2023-03-23T07:02:02;100042.76;;;10.26;82.77
38452;BME280;24231;52.514;13.438;2023-03-23T07:04:29;100048.46;;;10.33;82.57
38452;BME280;24231;52.514;13.438;2023-03-23T07:06:56;100051.17;;;11.00;81.02
38452;BME280;24231;52.514;13.438;2023-03-23T07:09:24;100049.08;;;11.30;79.76
38452;BME280;24231;52.514;13.438;2023-03-23T07:11:51;100050.57;;;11.00;80.05
38452;BME280;24231;52.514;13.438;2023-03-23T07:14:18;100046.15;;;10.74;80.43
38452;BME280;24231;52.514;13.438;2023-03-23T07:16:46;100049.75;;;11.88;77.15
38452;BME280;24231;52.514;13.438;2023-03-23T07:19:14;100042.55;;;11.43;78.68
38452;BME280;24231;52.514;13.438;2023-03-23T07:21:41;100034.05;;;11.84;76.59
38452;BME280;24231;52.514;13.438;2023-03-23T07:24:10;100024.23;;;12.81;72.61
38452;BME280;24231;52.514;13.438;2023-03-23T07:26:38;100007.89;;;12.98;72.55
38452;BME280;24231;52.514;13.438;2023-03-23T07:29:05;100020.40;;;12.30;74.12
38452;BME280;24231;52.514;13.438;2023-03-23T07:31:32;100029.64;;;12.46;73.48
38452;BME280;24231;52.514;13.438;2023-03-23T07:34:00;100040.20;;;11.68;76.07
38452;BME280;24231;52.514;13.438;2023-03-23T07:36:27;100036.87;;;11.74;78.03
38452;BME280;24231;52.514;13.438;2023-03-23T07:38:54;100031.60;;;11.67;77.70
38452;BME280;24231;52.514;13.438;2023-03-23T07:41:23;100024.16;;;11.05;79.69
38452;BME280;24231;52.514;13.438;2023-03-23T07:43:50;100041.76;;;11.63;77.41
38452;BME280;24231;52.514;13.438;2023-03-23T07:46:17;100043.97;;;11.64;78.40
38452;BME280;24231;52.514;13.438;2023-03-23T07:48:45;100036.55;;;11.62;77.91
38452;BME280;24231;52.514;13.438;2023-03-23T07:51:12;100025.11;;;11.82;76.74
38452;BME280;24231;52.514;13.438;2023-03-23T07:53:39;100000.84;;;12.46;74.45
38452;BME280;24231;52.514;13.438;2023-03-23T07:56:07;100000.89;;;11.07;80.03
38452;BME280;24231;52.514;13.438;2023-03-23T07:58:35;99992.89;;;10.98;81.67
38452;BME280;24231;52.514;13.438;2023-03-23T08:01:02;99973.17;;;10.49;83.16
38452;BME280;24231;52.514;13.438;2023-03-23T08:03:29;99979.85;;;11.18;80.23
38452;BME280;24231;52.514;13.438;2023-03-23T08:05:57;99995.21;;;10.99;80.78
38452;BME280;24231;52.514;13.438;2023-03-23T08:08:25;100004.22;;;11.56;77.94
38452;BME280;24231;52.514;13.438;2023-03-23T08:10:53;100022.19;;;11.35;79.10
38452;BME280;24231;52.514;13.438;2023-03-23T08:13:21;100025.53;;;12.05;77.81
38452;BME280;24231;52.514;13.438;2023-03-23T08:15:48;100029.66;;;11.77;76.91
38452;BME280;24231;52.514;13.438;2023-03-23T08:18:15;100030.51;;;11.92;76.63
38452;BME280;24231;52.514;13.438;2023-03-23T08:20:47;100037.52;;;11.85;76.02
38452;BME280;24231;52.514;13.438;2023-03-23T08:23:15;100042.61;;;12.18;74.33
38452;BME280;24231;52.514;13.438;2023-03-23T08:25:42;100032.73;;;12.42;73.90
38452;BME280;24231;52.514;13.438;2023-03-23T08:28:09;100032.90;;;12.39;74.77
38452;BME280;24231;52.514;13.438;2023-03-23T08:30:38;100040.71;;;12.06;75.40
38452;BME280;24231;52.514;13.438;2023-03-23T08:33:06;100041.18;;;13.43;69.60
38452;BME280;24231;52.514;13.438;2023-03-23T08:35:33;100039.12;;;13.24;70.78
38452;BME280;24231;52.514;13.438;2023-03-23T08:38:01;100047.12;;;12.00;76.20
38452;BME280;24231;52.514;13.438;2023-03-23T08:40:27;100043.41;;;11.87;75.65
38452;BME280;24231;52.514;13.438;2023-03-23T08:42:55;100025.26;;;12.06;75.50
38452;BME280;24231;52.514;13.438;2023-03-23T08:45:24;100021.88;;;11.37;77.31
38452;BME280;24231;52.514;13.438;2023-03-23T08:47:51;100014.81;;;12.21;74.54
38452;BME280;24231;52.514;13.438;2023-03-23T08:50:21;100031.87;;;12.35;73.62
38452;BME280;24231;52.514;13.438;2023-03-23T08:52:48;100050.38;;;12.46;74.27
38452;BME280;24231;52.514;13.438;2023-03-23T08:55:15;100056.78;;;12.14;75.30
38452;BME280;24231;52.514;13.438;2023-03-23T08:57:42;100051.64;;;11.87;75.73
38452;BME280;24231;52.514;13.438;2023-03-23T09:00:13;100052.57;;;11.95;75.09
38452;BME280;24231;52.514;13.438;2023-03-23T09:02:41;100043.56;;;12.59;74.47
38452;BME280;24231;52.514;13.438;2023-03-23T09:05:09;100042.52;;;12.82;71.22
38452;BME280;24231;52.514;13.438;2023-03-23T09:07:43;100040.08;;;12.57;73.32
38452;BME280;24231;52.514;13.438;2023-03-23T09:10:10;100045.40;;;12.53;72.92
38452;BME280;24231;52.514;13.438;2023-03-23T09:12:41;100059.56;;;12.44;73.60
38452;BME280;24231;52.514;13.438;2023-03-23T09:15:12;100056.18;;;12.93;71.73
38452;BME280;24231;52.514;13.438;2023-03-23T09:17:42;100057.59;;;13.78;67.43
38452;BME280;24231;52.514;13.438;2023-03-23T09:20:11;100065.27;;;12.89;69.64
38452;BME280;24231;52.514;13.438;2023-03-23T09:22:45;100051.22;;;12.37;72.84
38452;BME280;24231;52.514;13.438;2023-03-23T09:25:15;100050.70;;;12.52;72.36
38452;BME280;24231;52.514;13.438;2023-03-23T09:27:43;100044.05;;;12.39;73.01
38452;BME280;24231;52.514;13.438;2023-03-23T09:30:13;100044.58;;;12.77;72.33
38452;BME280;24231;52.514;13.438;2023-03-23T09:32:41;100033.13;;;12.85;70.91
38452;BME280;24231;52.514;13.438;2023-03-23T09:35:08;100038.89;;;13.19;69.30
38452;BME280;24231;52.514;13.438;2023-03-23T09:37:36;100042.38;;;12.95;69.62
38452;BME280;24231;52.514;13.438;2023-03-23T09:40:03;100038.55;;;13.34;69.43
38452;BME280;24231;52.514;13.438;2023-03-23T09:42:39;100045.95;;;13.73;68.31
38452;BME280;24231;52.514;13.438;2023-03-23T09:45:16;100047.64;;;13.71;68.04
38452;BME280;24231;52.514;13.438;2023-03-23T09:47:57;100051.34;;;14.13;67.96
38452;BME280;24231;52.514;13.438;2023-03-23T09:50:30;100049.73;;;13.77;67.23
38452;BME280;24231;52.514;13.438;2023-03-23T09:53:00;100056.27;;;13.77;66.51
38452;BME280;24231;52.514;13.438;2023-03-23T09:55:29;100054.61;;;14.26;64.26
38452;BME280;24231;52.514;13.438;2023-03-23T09:58:01;100054.93;;;14.16;64.40
38452;BME280;24231;52.514;13.438;2023-03-23T10:00:32;100056.67;;;14.24;64.93
38452;BME280;24231;52.514;13.438;2023-03-23T10:03:05;100060.58;;;13.89;65.07
38452;BME280;24231;52.514;13.438;2023-03-23T10:05:36;100054.13;;;13.65;66.14
38452;BME280;24231;52.514;13.438;2023-03-23T10:08:11;100051.21;;;13.69;65.02
38452;BME280;24231;52.514;13.438;2023-03-23T10:10:47;100064.04;;;14.23;63.14
38452;BME280;24231;52.514;13.438;2023-03-23T10:13:23;100069.66;;;13.84;64.09
38452;BME280;24231;52.514;13.438;2023-03-23T10:15:55;100057.31;;;13.55;65.51
38452;BME280;24231;52.514;13.438;2023-03-23T10:18:27;100049.89;;;13.08;66.97
38452;BME280;24231;52.514;13.438;2023-03-23T10:20:58;100056.24;;;13.65;65.74
38452;BME280;24231;52.514;13.438;2023-03-23T10:23:42;100044.54;;;13.82;65.28
38452;BME280;24231;52.514;13.438;2023-03-23T10:26:20;100043.19;;;13.50;65.73
38452;BME280;24231;52.514;13.438;2023-03-23T10:28:52;100042.53;;;13.60;64.65
38452;BME280;24231;52.514;13.438;2023-03-23T10:31:34;100036.54;;;14.52;61.18
38452;BME280;24231;52.514;13.438;2023-03-23T10:34:04;100029.79;;;14.33;60.91
38452;BME280;24231;52.514;13.438;2023-03-23T10:36:39;100035.10;;;13.90;62.59
38452;BME280;24231;52.514;13.438;2023-03-23T10:39:11;100028.96;;;13.65;63.90
38452;BME280;24231;52.514;13.438;2023-03-23T10:41:40;100026.52;;;13.97;63.36
38452;BME280;24231;52.514;13.438;2023-03-23T10:44:15;100029.67;;;14.14;62.50
38452;BME280;24231;52.514;13.438;2023-03-23T10:46:46;100032.19;;;14.61;60.58
38452;BME280;24231;52.514;13.438;2023-03-23T10:49:20;100030.55;;;14.62;61.44
38452;BME280;24231;52.514;13.438;2023-03-23T10:51:57;100025.90;;;14.28;61.42
38452;BME280;24231;52.514;13.438;2023-03-23T10:54:31;100032.80;;;15.19;58.77
38452;BME280;24231;52.514;13.438;2023-03-23T10:56:59;100030.97;;;14.50;60.95
38452;BME280;24231;52.514;13.438;2023-03-23T10:59:28;100032.23;;;14.25;60.47
38452;BME280;24231;52.514;13.438;2023-03-23T11:01:59;100031.06;;;14.09;61.48
38452;BME280;24231;52.514;13.438;2023-03-23T11:04:27;100037.49;;;13.75;61.90
38452;BME280;24231;52.514;13.438;2023-03-23T11:06:59;100033.01;;;14.36;59.98
38452;BME280;24231;52.514;13.438;2023-03-23T11:09:35;100034.83;;;14.15;60.40
38452;BME280;24231;52.514;13.438;2023-03-23T11:12:03;100042.93;;;13.80;61.63
38452;BME280;24231;52.514;13.438;2023-03-23T11:14:32;100045.28;;;14.51;60.10
38452;BME280;24231;52.514;13.438;2023-03-23T11:17:02;100051.09;;;13.37;62.88
38452;BME280;24231;52.514;13.438;2023-03-23T11:19:30;100049.27;;;14.05;60.13
38452;BME280;24231;52.514;13.438;2023-03-23T11:22:06;100049.51;;;14.48;58.91
38452;BME280;24231;52.514;13.438;2023-03-23T11:24:41;100051.54;;;14.34;58.87
38452;BME280;24231;52.514;13.438;2023-03-23T11:27:10;100048.57;;;13.96;60.19
38452;BME280;24231;52.514;13.438;2023-03-23T11:29:44;100050.41;;;15.16;56.54
38452;BME280;24231;52.514;13.438;2023-03-23T11:32:14;100055.68;;;14.52;58.03
38452;BME280;24231;52.514;13.438;2023-03-23T11:34:43;100051.29;;;13.80;60.76
38452;BME280;24231;52.514;13.438;2023-03-23T11:37:14;100056.10;;;14.19;59.79
38452;BME280;24231;52.514;13.438;2023-03-23T11:39:48;100059.56;;;14.14;59.52
38452;BME280;24231;52.514;13.438;2023-03-23T11:42:20;100058.00;;;13.87;60.22
38452;BME280;24231;52.514;13.438;2023-03-23T11:44:47;100059.08;;;14.05;59.74
38452;BME280;24231;52.514;13.438;2023-03-23T11:47:20;100060.33;;;13.86;59.73
38452;BME280;24231;52.514;13.438;2023-03-23T11:49:55;100054.51;;;13.84;60.29
38452;BME280;24231;52.514;13.438;2023-03-23T11:52:32;100058.26;;;13.88;59.18
38452;BME280;24231;52.514;13.438;2023-03-23T11:55:08;100059.64;;;14.78;56.69
38452;BME280;24231;52.514;13.438;2023-03-23T11:57:35;100055.84;;;14.81;56.22
38452;BME280;24231;52.514;13.438;2023-03-23T12:00:13;100061.48;;;14.75;56.45
38452;BME280;24231;52.514;13.438;2023-03-23T12:03:54;100063.50;;;14.77;56.77
38452;BME280;24231;52.514;13.438;2023-03-23T12:06:31;100066.10;;;15.15;54.37
38452;BME280;24231;52.514;13.438;2023-03-23T12:09:10;100064.47;;;15.22;54.50
38452;BME280;24231;52.514;13.438;2023-03-23T12:11:55;100068.05;;;14.17;57.73
38452;BME280;24231;52.514;13.438;2023-03-23T12:14:36;100061.12;;;14.17;57.70
38452;BME280;24231;52.514;13.438;2023-03-23T12:17:16;100069.80;;;14.30;56.34
38452;BME280;24231;52.514;13.438;2023-03-23T12:19:53;100072.41;;;14.44;56.88
38452;BME280;24231;52.514;13.438;2023-03-23T12:22:33;100057.64;;;14.12;57.48
38452;BME280;24231;52.514;13.438;2023-03-23T12:25:30;100062.44;;;14.47;56.49
38452;BME280;24231;52.514;13.438;2023-03-23T12:28:09;100058.16;;;14.19;57.20
38452;BME280;24231;52.514;13.438;2023-03-23T12:30:44;100052.85;;;14.53;55.55
38452;BME280;24231;52.514;13.438;2023-03-23T12:33:22;100045.77;;;14.60;56.44
38452;BME280;24231;52.514;13.438;2023-03-23T12:36:01;100051.41;;;14.22;56.54
38452;BME280;24231;52.514;13.438;2023-03-23T12:38:44;100043.01;;;14.12;56.66
38452;BME280;24231;52.514;13.438;2023-03-23T12:41:17;100039.84;;;14.63;55.54
38452;BME280;24231;52.514;13.438;2023-03-23T12:43:50;100038.83;;;14.79;54.75
38452;BME280;24231;52.514;13.438;2023-03-23T12:46:45;100038.70;;;14.63;55.61
38452;BME280;24231;52.514;13.438;2023-03-23T12:49:18;100037.62;;;14.25;55.82
38452;BME280;24231;52.514;13.438;2023-03-23T12:52:30;100036.71;;;14.40;55.73
38452;BME280;24231;52.514;13.438;2023-03-23T12:55:01;100027.60;;;14.64;54.87
38452;BME280;24231;52.514;13.438;2023-03-23T12:57:34;100006.04;;;14.34;54.85
38452;BME280;24231;52.514;13.438;2023-03-23T13:00:07;100003.29;;;15.02;53.40
38452;BME280;24231;52.514;13.438;2023-03-23T13:02:54;100029.52;;;15.24;52.83